createdAt,value
2019-05-19T00:03:34.385Z,100084.87
2019-05-19T00:09:40.359Z,100080.81
2019-05-19T00:15:46.361Z,100069.77
2019-05-19T00:21:52.251Z,100067.11
2019-05-19T00:27:58.184Z,100049.89
2019-05-19T00:34:04.439Z,100046.03
2019-05-19T00:40:10.656Z,100043.00
2019-05-19T00:46:16.485Z,100036.53
2019-05-19T00:52:22.416Z,100024.03
2019-05-19T00:58:30.424Z,100025.52
2019-05-19T01:04:36.338Z,100031.38
2019-05-19T01:10:42.231Z,100019.33
2019-05-19T01:16:48.776Z,100023.27
2019-05-19T01:22:54.557Z,100016.83
2019-05-19T01:29:00.769Z,100024.20
2019-05-19T01:35:07.283Z,100020.13
2019-05-19T01:41:13.182Z,100021.28
2019-05-19T01:47:18.979Z,100021.71
2019-05-19T01:53:24.919Z,100021.71
2019-05-19T01:59:30.711Z,100021.95
2019-05-19T02:05:36.586Z,100021.99
2019-05-19T02:11:44.412Z,100019.13
2019-05-19T02:17:50.207Z,100020.44
2019-05-19T02:23:55.994Z,100013.45
2019-05-19T02:30:02.257Z,100013.45
2019-05-19T02:36:08.467Z,100018.12
2019-05-19T02:42:15.641Z,100017.97
2019-05-19T02:48:22.233Z,100014.99
2019-05-19T02:54:29.313Z,100014.83
2019-05-19T03:00:40.800Z,100012.28
2019-05-19T03:06:46.650Z,100004.50
2019-05-19T03:12:52.407Z,100000.87
2019-05-19T03:18:58.172Z,99999.98
2019-05-19T03:25:04.048Z,100001.92
2019-05-19T03:31:40.761Z,99994.47
2019-05-19T03:37:51.068Z,100006.93
2019-05-19T03:43:56.848Z,100008.44
2019-05-19T03:50:03.051Z,100002.64
2019-05-19T03:56:08.809Z,99999.22
2019-05-19T04:02:14.696Z,99992.47
2019-05-19T04:08:20.473Z,99988.66
2019-05-19T04:14:26.710Z,99993.16
2019-05-19T04:20:33.170Z,100004.22
2019-05-19T04:26:38.918Z,100000.01
2019-05-19T04:32:45.209Z,99987.30
2019-05-19T04:38:52.866Z,99995.63
2019-05-19T04:44:58.812Z,99992.27
2019-05-19T04:51:04.537Z,100000.03
2019-05-19T04:57:10.263Z,100007.20
2019-05-19T05:03:16.023Z,100012.55
2019-05-19T05:09:21.809Z,100018.73
2019-05-19T05:15:27.976Z,100014.12
2019-05-19T05:21:36.725Z,100009.77
2019-05-19T05:27:42.483Z,100008.80
2019-05-19T05:33:48.408Z,100013.94
2019-05-19T05:39:54.188Z,100014.96
2019-05-19T05:46:00.089Z,100012.23
2019-05-19T05:52:06.205Z,100012.55
2019-05-19T05:58:12.203Z,100019.30
2019-05-19T06:04:18.074Z,100006.41
2019-05-19T06:10:23.824Z,100007.04
2019-05-19T06:16:29.666Z,100012.45
2019-05-19T06:22:35.850Z,99998.60
2019-05-19T06:28:41.761Z,100006.37
2019-05-19T06:34:47.514Z,100005.09
2019-05-19T06:40:53.578Z,100001.03
2019-05-19T06:46:59.514Z,100004.02
2019-05-19T06:53:14.026Z,100003.70
2019-05-19T06:59:15.034Z,100003.84
2019-05-19T07:05:21.964Z,100000.13
2019-05-19T07:11:27.877Z,100007.75
2019-05-19T07:17:33.718Z,100004.70
2019-05-19T07:23:39.510Z,100010.97
2019-05-19T07:29:45.401Z,100010.12
2019-05-19T07:35:51.463Z,100009.73
2019-05-19T07:41:57.644Z,100010.44
2019-05-19T07:48:03.401Z,100007.40
2019-05-19T07:54:09.099Z,100007.96
2019-05-19T08:00:15.010Z,100007.50
2019-05-19T08:06:20.895Z,100009.77
2019-05-19T08:12:28.114Z,99999.47
2019-05-19T08:18:33.894Z,100001.07
2019-05-19T08:24:39.785Z,99998.16
2019-05-19T08:30:45.710Z,99995.61
2019-05-19T08:36:51.847Z,99996.45
2019-05-19T08:42:57.935Z,99993.47
2019-05-19T08:49:03.704Z,99993.89
2019-05-19T08:55:09.558Z,99997.27
2019-05-19T09:01:15.308Z,99987.62
2019-05-19T09:07:21.019Z,99980.23
2019-05-19T09:13:27.523Z,99972.14
2019-05-19T09:19:33.582Z,99977.52
2019-05-19T09:25:39.560Z,99968.97
2019-05-19T09:31:45.318Z,99967.09
2019-05-19T09:37:51.617Z,99966.88
2019-05-19T09:43:57.794Z,99969.38
2019-05-19T09:50:03.805Z,99962.31
2019-05-19T09:56:11.614Z,99955.89
2019-05-19T10:02:17.718Z,99950.77
2019-05-19T10:08:26.307Z,99932.45
2019-05-19T10:14:32.649Z,99933.78
2019-05-19T10:20:39.025Z,99937.73
2019-05-19T10:26:45.151Z,99932.48
2019-05-19T10:32:51.468Z,99920.81
2019-05-19T10:38:57.509Z,99921.52
2019-05-19T10:45:04.023Z,99913.94
2019-05-19T10:51:09.871Z,99910.75
2019-05-19T10:57:15.604Z,99910.16
2019-05-19T11:03:21.462Z,99906.39
2019-05-19T11:09:27.278Z,99907.38
2019-05-19T11:15:33.036Z,99904.27
2019-05-19T11:21:38.794Z,99896.73
2019-05-19T11:27:44.884Z,99893.60
2019-05-19T11:33:51.027Z,99888.52
2019-05-19T11:39:57.093Z,99890.19
2019-05-19T11:46:03.773Z,99893.00
2019-05-19T11:52:09.974Z,99890.61
2019-05-19T11:58:16.016Z,99889.16
2019-05-19T12:04:22.219Z,99881.38
2019-05-19T12:10:28.641Z,99879.33
2019-05-19T12:16:34.620Z,99881.96
2019-05-19T12:22:40.765Z,99890.52
2019-05-19T12:28:46.794Z,99892.43
2019-05-19T12:34:54.630Z,99878.62
2019-05-19T12:41:01.101Z,99871.40
2019-05-19T12:47:07.919Z,99866.73
2019-05-19T12:53:14.510Z,99878.00
2019-05-19T12:59:20.860Z,99873.98
2019-05-19T13:05:26.984Z,99891.02
2019-05-19T13:11:33.216Z,99882.30
2019-05-19T13:17:39.415Z,99882.08
2019-05-19T13:23:45.496Z,99873.96
2019-05-19T13:29:51.803Z,99873.84
2019-05-19T13:35:58.049Z,99878.02
2019-05-19T13:42:04.312Z,99869.38
2019-05-19T13:48:10.461Z,99869.95
2019-05-19T13:54:16.494Z,99865.08
2019-05-19T14:00:22.547Z,99868.39
2019-05-19T14:06:29.240Z,99863.25
2019-05-19T14:12:35.427Z,99868.20
2019-05-19T14:18:41.764Z,99880.47
2019-05-19T14:24:48.084Z,99886.81
2019-05-19T14:30:54.339Z,99905.35
2019-05-19T14:37:00.592Z,99923.98
2019-05-19T14:43:07.668Z,99928.48
2019-05-19T14:49:13.498Z,99923.94
2019-05-19T14:55:19.610Z,99926.52
2019-05-19T15:01:25.411Z,99904.94
2019-05-19T15:07:31.460Z,99913.09
2019-05-19T15:13:37.205Z,99910.03
2019-05-19T15:19:43.107Z,99913.08
2019-05-19T15:25:49.299Z,99902.55
2019-05-19T15:31:55.411Z,99919.06
2019-05-19T15:38:01.387Z,99917.19
2019-05-19T15:44:07.092Z,99910.34
2019-05-19T15:50:13.534Z,99907.78
2019-05-19T15:56:19.326Z,99890.45
2019-05-19T16:02:25.083Z,99885.08
2019-05-19T16:08:31.339Z,99874.06
2019-05-19T16:14:37.591Z,99866.18
2019-05-19T16:20:45.023Z,99869.06
2019-05-19T16:26:51.032Z,99870.33
2019-05-19T16:32:57.568Z,99867.92
2019-05-19T16:39:04.241Z,99871.66
2019-05-19T16:45:10.785Z,99862.82
2019-05-19T16:51:17.144Z,99860.22
2019-05-19T16:57:23.157Z,99854.34
2019-05-19T17:03:30.278Z,99843.44
2019-05-19T17:09:36.349Z,99834.70
2019-05-19T17:15:42.439Z,99838.59
2019-05-19T17:21:48.667Z,99846.19
2019-05-19T17:27:54.881Z,99845.85
2019-05-19T17:34:01.284Z,99840.41
2019-05-19T17:40:08.691Z,99861.98
2019-05-19T17:46:14.861Z,99861.39
2019-05-19T17:52:20.870Z,99875.12
2019-05-19T17:58:27.776Z,99887.34
2019-05-19T18:04:35.258Z,99896.81
2019-05-19T18:10:41.136Z,99912.66
2019-05-19T18:16:47.002Z,99917.65
2019-05-19T18:22:52.801Z,99915.91
2019-05-19T18:28:58.718Z,99920.84
2019-05-19T18:35:04.797Z,99933.48
2019-05-19T18:41:10.592Z,99942.43
2019-05-19T18:47:16.661Z,99949.13
2019-05-19T18:53:22.513Z,99955.47
2019-05-19T18:59:28.327Z,99965.41
2019-05-19T19:05:34.449Z,99972.75
2019-05-19T19:11:40.366Z,99982.20
2019-05-19T19:17:46.221Z,99993.67
2019-05-19T19:23:52.152Z,100003.72
2019-05-19T19:30:03.380Z,100011.34
2019-05-19T19:36:05.681Z,100023.61
2019-05-19T19:42:11.580Z,100022.12
2019-05-19T19:48:17.472Z,100023.02
2019-05-19T19:54:23.585Z,100031.16
2019-05-19T20:00:46.093Z,100035.22
2019-05-19T20:06:51.934Z,100033.09
2019-05-19T20:12:57.745Z,100039.67
2019-05-19T20:19:03.625Z,100044.05
2019-05-19T20:25:09.574Z,100043.80
2019-05-19T20:31:15.557Z,100039.80
2019-05-19T20:37:21.630Z,100044.30
2019-05-19T20:43:27.503Z,100041.91
2019-05-19T20:49:33.333Z,100032.55
2019-05-19T20:55:39.140Z,100033.94
2019-05-19T21:01:45.165Z,100036.55
2019-05-19T21:07:51.042Z,100043.34
2019-05-19T21:13:56.864Z,100045.93
2019-05-19T21:20:02.950Z,100041.19
2019-05-19T21:26:09.025Z,100036.39
2019-05-19T21:32:15.094Z,100033.08
2019-05-19T21:38:21.342Z,100039.83
2019-05-19T21:44:27.456Z,100033.16
2019-05-19T21:50:34.293Z,100037.11
2019-05-19T21:56:40.815Z,100039.14
2019-05-19T22:02:46.793Z,100035.59
2019-05-19T22:08:52.677Z,100042.45
2019-05-19T22:15:00.024Z,100049.30
2019-05-19T22:21:07.948Z,100045.20
2019-05-19T22:27:13.768Z,100053.55
2019-05-19T22:33:20.346Z,100046.89
2019-05-19T22:39:26.514Z,100058.57
2019-05-19T22:45:32.717Z,100047.64
2019-05-19T22:51:40.408Z,100045.03
2019-05-19T22:57:46.162Z,100042.52
2019-05-19T23:03:52.002Z,100040.98
2019-05-19T23:09:58.141Z,100039.72
2019-05-19T23:16:03.963Z,100036.53
2019-05-19T23:22:12.308Z,100023.42
2019-05-19T23:28:18.369Z,100016.62
2019-05-19T23:34:24.643Z,100024.95
2019-05-19T23:40:30.706Z,100017.25
2019-05-19T23:46:36.809Z,100016.33
2019-05-19T23:52:42.678Z,100017.79
2019-05-19T23:58:48.479Z,100013.82
